createdAt,value
2023-12-22T00:00:06.324Z,96902.75
2023-12-22T00:01:06.626Z,96890.38
2023-12-22T00:01:46.893Z,96889.31
2023-12-22T00:02:27.579Z,96882.41
2023-12-22T00:03:07.773Z,96885.16
2023-12-22T00:03:49.592Z,96898.19
2023-12-22T00:04:29.708Z,96904.09
2023-12-22T00:05:10.592Z,96910.16
2023-12-22T00:05:50.824Z,96884.81
2023-12-22T00:06:30.571Z,96898.13
2023-12-22T00:07:10.647Z,96889.06
2023-12-22T00:07:51.864Z,96896.91
2023-12-22T00:08:32.701Z,96904.78
2023-12-22T00:09:12.582Z,96891.41
2023-12-22T00:09:52.732Z,96896.56
2023-12-22T00:10:32.605Z,96895.66
2023-12-22T00:11:12.655Z,96881.72
2023-12-22T00:11:53.577Z,96917.31
2023-12-22T00:12:33.709Z,96928.06
2023-12-22T00:13:13.626Z,96877.66
2023-12-22T00:13:53.786Z,96890.88
2023-12-22T00:14:33.576Z,96888.72
2023-12-22T00:15:13.657Z,96901.19
2023-12-22T00:15:54.554Z,96903.81
2023-12-22T00:16:34.749Z,96893.28
2023-12-22T00:17:15.553Z,96882.28
2023-12-22T00:17:55.707Z,96912.59
2023-12-22T00:18:35.601Z,96897.56
2023-12-22T00:19:15.773Z,96894.78
2023-12-22T00:19:56.622Z,96900.59
2023-12-22T00:20:36.657Z,96899.53
2023-12-22T00:21:19.580Z,96913.56
2023-12-22T00:21:59.686Z,96908.56
2023-12-22T00:22:39.623Z,96913.38
2023-12-22T00:23:19.663Z,96902.03
2023-12-22T00:24:00.542Z,96898.81
2023-12-22T00:24:41.510Z,96920.88
2023-12-22T00:25:22.723Z,96877.97
2023-12-22T00:26:02.682Z,96910.47
2023-12-22T00:26:42.551Z,96905.13
2023-12-22T00:27:22.737Z,96885.56
2023-12-22T00:28:03.544Z,96890.28
2023-12-22T00:28:44.100Z,96891.75
2023-12-22T00:29:24.540Z,96919.31
2023-12-22T00:30:04.652Z,96899.13
2023-12-22T00:30:44.579Z,96893.81
2023-12-22T00:31:24.705Z,96916.13
2023-12-22T00:32:05.547Z,96906.75
2023-12-22T00:32:45.759Z,96891.72
2023-12-22T00:33:25.608Z,96898.94
2023-12-22T00:34:05.698Z,96906.31
2023-12-22T00:34:45.555Z,96904.91
2023-12-22T00:35:25.644Z,96891.34
2023-12-22T00:36:06.548Z,96894.09
2023-12-22T00:36:46.634Z,96898.63
2023-12-22T00:37:26.588Z,96905.72
2023-12-22T00:38:06.771Z,96909.31
2023-12-22T00:38:46.558Z,96922.84
2023-12-22T00:39:26.748Z,96908.81
2023-12-22T00:40:07.541Z,96910.53
2023-12-22T00:40:41.381Z,96885.34
2023-12-22T00:41:28.562Z,96900.84
2023-12-22T00:42:02.547Z,96902.03
2023-12-22T00:42:50.544Z,96917.03
2023-12-22T00:43:24.387Z,96909.88
2023-12-22T00:44:12.574Z,96894.53
2023-12-22T00:44:46.310Z,96895.38
2023-12-22T00:45:33.588Z,96894.53
2023-12-22T00:46:07.613Z,96881.75
2023-12-22T00:46:47.573Z,96898.63
2023-12-22T00:47:21.841Z,96893.47
2023-12-22T00:47:56.324Z,96893.97
2023-12-22T00:48:36.578Z,96939.16
2023-12-22T00:49:10.781Z,96914.09
2023-12-22T00:49:45.335Z,96934.53
2023-12-22T00:50:25.539Z,96890.50
2023-12-22T00:50:59.632Z,96895.50
2023-12-22T00:51:34.420Z,96886.34
2023-12-22T00:52:14.692Z,96883.25
2023-12-22T00:52:48.699Z,96905.00
2023-12-22T00:53:22.304Z,96891.63
2023-12-22T00:54:02.534Z,96897.28
2023-12-22T00:54:36.681Z,96900.28
2023-12-22T00:55:10.599Z,96894.94
2023-12-22T00:55:51.568Z,96901.91
2023-12-22T00:56:25.631Z,96923.09
2023-12-22T00:56:59.627Z,96912.97
2023-12-22T00:57:39.560Z,96901.63
2023-12-22T00:58:13.635Z,96884.44
2023-12-22T00:58:55.028Z,96918.88
2023-12-22T00:59:39.520Z,96907.97
2023-12-22T01:00:14.612Z,96873.13
2023-12-22T01:00:51.321Z,96907.16
2023-12-22T01:01:31.518Z,96898.59
2023-12-22T01:02:05.635Z,96910.66
2023-12-22T01:02:46.527Z,96898.00
2023-12-22T01:03:27.635Z,96879.72
2023-12-22T01:04:07.616Z,96911.66
2023-12-22T01:04:47.750Z,96903.34
2023-12-22T01:05:27.645Z,96899.44
2023-12-22T01:06:07.724Z,96891.84
2023-12-22T01:06:48.561Z,96916.22
2023-12-22T01:07:29.632Z,96905.94
2023-12-22T01:08:09.587Z,96918.03
2023-12-22T01:08:51.104Z,96925.09
2023-12-22T01:09:31.504Z,96933.84
2023-12-22T01:10:12.721Z,96900.00
2023-12-22T01:10:52.654Z,96894.66
2023-12-22T01:11:33.596Z,96915.78
2023-12-22T01:12:15.530Z,96921.88
2023-12-22T01:12:55.600Z,96902.88
2023-12-22T01:13:35.563Z,96926.75
2023-12-22T01:14:15.656Z,96910.66
2023-12-22T01:14:59.514Z,96930.41
2023-12-22T01:15:40.622Z,96898.94
2023-12-22T01:16:20.546Z,96932.06
2023-12-22T01:17:01.448Z,96905.94
2023-12-22T01:17:41.603Z,96910.13
2023-12-22T01:18:21.667Z,96900.59
2023-12-22T01:19:08.594Z,96930.31
2023-12-22T01:19:42.698Z,96920.97
2023-12-22T01:20:29.488Z,96909.53
2023-12-22T01:21:03.701Z,96898.88
2023-12-22T01:21:53.029Z,96900.13
2023-12-22T01:22:27.605Z,96900.97
2023-12-22T01:23:15.516Z,96939.47
2023-12-22T01:23:49.586Z,96906.38
2023-12-22T01:24:29.515Z,96921.13
2023-12-22T01:25:09.584Z,96937.09
2023-12-22T01:25:49.547Z,96972.06
2023-12-22T01:26:29.671Z,96900.00
2023-12-22T01:27:10.503Z,96955.50
2023-12-22T01:27:53.347Z,96950.66
2023-12-22T01:28:33.548Z,96918.09
2023-12-22T01:29:13.653Z,96926.41
2023-12-22T01:29:53.599Z,96908.91
2023-12-22T01:30:33.643Z,96891.69
2023-12-22T01:31:13.585Z,96899.72
2023-12-22T01:31:54.646Z,96901.66
2023-12-22T01:32:40.521Z,96903.56
2023-12-22T01:33:20.663Z,96899.97
2023-12-22T01:34:01.520Z,96902.84
2023-12-22T01:34:41.719Z,96924.00
2023-12-22T01:35:22.490Z,96902.13
2023-12-22T01:36:03.971Z,96940.69
2023-12-22T01:36:45.479Z,96907.03
2023-12-22T01:37:25.733Z,96901.19
2023-12-22T01:38:06.488Z,96906.75
2023-12-22T01:38:46.620Z,96914.63
2023-12-22T01:39:27.480Z,96900.84
2023-12-22T01:40:07.692Z,96906.41
2023-12-22T01:40:47.553Z,96951.19
2023-12-22T01:41:27.619Z,96919.50
2023-12-22T01:42:07.458Z,96917.53
2023-12-22T01:42:48.619Z,96939.59
2023-12-22T01:43:29.555Z,96933.41
2023-12-22T01:44:09.567Z,96944.66
2023-12-22T01:44:49.478Z,96963.75
2023-12-22T01:45:29.569Z,96955.25
2023-12-22T01:46:10.479Z,96984.22
2023-12-22T01:46:50.717Z,96992.66
2023-12-22T01:47:31.491Z,96969.09
2023-12-22T01:48:12.728Z,96980.41
2023-12-22T01:48:53.497Z,96994.09
2023-12-22T01:49:33.730Z,96971.25
2023-12-22T01:50:18.531Z,96968.81
2023-12-22T01:50:59.832Z,96953.44
2023-12-22T01:51:41.599Z,96995.06
2023-12-22T01:52:23.373Z,96982.25
2023-12-22T01:53:04.530Z,96953.25
2023-12-22T01:53:44.549Z,97008.25
2023-12-22T01:54:25.452Z,96972.50
2023-12-22T01:55:05.576Z,96989.69
2023-12-22T01:55:46.503Z,96974.34
2023-12-22T01:56:26.566Z,96975.69
2023-12-22T01:57:07.497Z,96968.31
2023-12-22T01:57:48.840Z,96975.00
2023-12-22T01:58:32.470Z,96944.66
2023-12-22T01:59:12.565Z,96960.50
2023-12-22T01:59:54.466Z,96951.66
2023-12-22T02:00:34.870Z,96948.94
2023-12-22T02:01:15.609Z,96945.28
2023-12-22T02:01:55.613Z,96976.84
2023-12-22T02:02:36.473Z,96958.00
2023-12-22T02:03:17.569Z,96945.81
2023-12-22T02:04:00.645Z,96931.91
2023-12-22T02:04:40.559Z,96933.09
2023-12-22T02:05:21.516Z,96952.97
2023-12-22T02:06:01.625Z,96937.06
2023-12-22T02:06:43.437Z,96937.88
2023-12-22T02:07:23.538Z,96923.50
2023-12-22T02:08:04.486Z,96928.56
2023-12-22T02:08:44.551Z,96999.38
2023-12-22T02:09:24.439Z,96961.47
2023-12-22T02:10:04.845Z,96951.91
2023-12-22T02:10:45.488Z,96933.53
2023-12-22T02:11:25.547Z,96941.72
2023-12-22T02:12:06.445Z,96940.69
2023-12-22T02:12:47.242Z,96942.84
2023-12-22T02:13:27.471Z,96935.34
2023-12-22T02:14:07.564Z,96956.03
2023-12-22T02:14:47.425Z,96957.50
2023-12-22T02:15:27.550Z,96945.53
2023-12-22T02:16:34.502Z,96938.28
2023-12-22T02:17:31.573Z,96936.56
2023-12-22T02:18:24.487Z,96942.16
2023-12-22T02:19:08.492Z,96940.84
2023-12-22T02:19:51.625Z,96937.47
2023-12-22T02:20:39.426Z,96941.84
2023-12-22T02:21:13.524Z,96955.66
2023-12-22T02:22:14.488Z,96927.47
2023-12-22T02:22:48.644Z,96930.13
2023-12-22T02:23:35.439Z,96928.75
2023-12-22T02:24:16.457Z,96934.44
2023-12-22T02:25:10.467Z,96921.53
2023-12-22T02:26:11.464Z,96933.44
2023-12-22T02:27:05.431Z,96948.78
2023-12-22T02:28:13.467Z,96962.84
2023-12-22T02:29:10.441Z,96951.53
2023-12-22T02:29:57.510Z,96940.78
2023-12-22T02:30:45.521Z,96938.03
2023-12-22T02:31:44.464Z,96940.25
2023-12-22T02:32:32.644Z,96947.13
2023-12-22T02:33:15.451Z,96935.97
2023-12-22T02:33:56.304Z,96927.13
2023-12-22T02:34:38.568Z,96939.13
2023-12-22T02:35:30.529Z,96943.13
2023-12-22T02:36:11.543Z,96995.22
2023-12-22T02:36:59.425Z,96953.16
2023-12-22T02:37:34.613Z,96935.47
2023-12-22T02:38:22.418Z,96960.50
2023-12-22T02:38:57.496Z,96936.09
2023-12-22T02:39:44.410Z,96922.22
2023-12-22T02:40:19.539Z,96932.91
2023-12-22T02:41:00.602Z,96941.31
2023-12-22T02:41:40.518Z,96942.28
2023-12-22T02:42:21.443Z,96934.09
2023-12-22T02:43:01.647Z,96938.25
2023-12-22T02:43:41.434Z,96936.44
2023-12-22T02:44:21.496Z,96930.06
2023-12-22T02:45:02.422Z,96926.91
2023-12-22T02:45:56.435Z,96907.09
2023-12-22T02:46:36.421Z,96927.06
2023-12-22T02:47:16.502Z,96924.22
2023-12-22T02:47:56.516Z,96919.56
2023-12-22T02:48:37.556Z,96931.41
2023-12-22T02:49:18.460Z,96905.56
2023-12-22T02:49:58.770Z,96922.25
2023-12-22T02:50:38.415Z,96920.41
2023-12-22T02:51:18.489Z,96931.72
2023-12-22T02:51:58.422Z,96921.09
2023-12-22T02:52:38.586Z,96921.22
2023-12-22T02:53:18.412Z,96921.22
2023-12-22T02:53:58.594Z,96909.50
2023-12-22T02:54:40.430Z,96943.25
2023-12-22T02:55:20.575Z,96924.09
2023-12-22T02:56:01.467Z,96913.84
2023-12-22T02:56:43.813Z,96919.38
2023-12-22T02:57:23.427Z,96913.63
2023-12-22T02:58:03.522Z,96920.41
2023-12-22T02:58:43.522Z,96929.81
2023-12-22T02:59:23.635Z,96937.91
2023-12-22T03:00:04.420Z,96928.66
2023-12-22T03:00:44.551Z,96915.47
2023-12-22T03:01:24.471Z,96898.28
2023-12-22T03:02:04.573Z,96953.59
2023-12-22T03:02:44.436Z,96911.25
2023-12-22T03:03:24.501Z,96914.25
2023-12-22T03:04:05.449Z,96902.75
2023-12-22T03:04:47.511Z,96926.75
2023-12-22T03:05:27.436Z,96942.41
2023-12-22T03:06:07.569Z,96908.47
2023-12-22T03:06:47.395Z,96959.41
2023-12-22T03:07:27.505Z,96920.94
2023-12-22T03:08:08.480Z,96938.31
2023-12-22T03:08:48.506Z,96941.00
2023-12-22T03:09:29.393Z,96929.28
2023-12-22T03:10:09.513Z,96970.28
2023-12-22T03:10:49.453Z,96928.03
2023-12-22T03:11:29.477Z,96908.91
2023-12-22T03:12:10.363Z,96920.56
2023-12-22T03:12:50.517Z,96936.38
2023-12-22T03:13:30.502Z,96951.09
2023-12-22T03:14:11.121Z,96950.75
2023-12-22T03:14:51.401Z,96957.75
2023-12-22T03:15:31.484Z,96933.38
2023-12-22T03:16:16.395Z,96915.47
2023-12-22T03:16:56.533Z,96914.63
2023-12-22T03:17:36.399Z,96925.53
2023-12-22T03:18:16.776Z,96946.44
2023-12-22T03:18:57.413Z,96928.41
2023-12-22T03:19:38.539Z,96931.38
2023-12-22T03:20:19.400Z,96945.91
2023-12-22T03:20:59.495Z,96931.84
2023-12-22T03:21:39.399Z,96945.72
2023-12-22T03:22:19.556Z,96941.69
2023-12-22T03:22:59.450Z,96931.13
2023-12-22T03:23:39.448Z,96955.25
2023-12-22T03:24:20.382Z,96926.03
2023-12-22T03:25:00.470Z,96917.63
2023-12-22T03:25:40.379Z,96934.69
2023-12-22T03:26:20.475Z,96958.13
2023-12-22T03:27:01.407Z,96921.97
2023-12-22T03:27:41.470Z,96964.75
2023-12-22T03:28:22.388Z,96947.56
2023-12-22T03:29:02.475Z,96917.94
2023-12-22T03:29:42.392Z,96935.03
2023-12-22T03:30:22.552Z,96925.97
2023-12-22T03:31:02.383Z,96941.41
2023-12-22T03:31:42.509Z,96922.28
2023-12-22T03:32:23.389Z,96917.00
2023-12-22T03:33:03.624Z,96919.97
2023-12-22T03:33:43.391Z,96928.34
2023-12-22T03:34:23.505Z,96926.38
2023-12-22T03:35:03.498Z,96941.91
2023-12-22T03:35:43.470Z,96919.97
2023-12-22T03:36:24.369Z,96934.66
2023-12-22T03:37:04.467Z,96919.97
2023-12-22T03:37:44.436Z,96926.72
2023-12-22T03:38:24.431Z,96932.75
2023-12-22T03:39:04.334Z,96967.00
2023-12-22T03:39:44.479Z,96952.16
2023-12-22T03:40:25.396Z,96944.47
2023-12-22T03:41:19.362Z,96948.50
2023-12-22T03:42:13.387Z,96923.09
2023-12-22T03:43:07.345Z,96945.09
2023-12-22T03:44:13.335Z,96937.06
2023-12-22T03:45:07.356Z,96960.47
2023-12-22T03:45:47.364Z,96947.75
2023-12-22T03:46:27.539Z,96956.78
2023-12-22T03:47:07.359Z,96935.75
2023-12-22T03:47:47.796Z,96946.22
2023-12-22T03:48:29.413Z,96934.34
2023-12-22T03:49:09.543Z,96922.16
2023-12-22T03:49:49.358Z,96954.16
2023-12-22T03:50:29.498Z,96946.09
2023-12-22T03:51:09.397Z,96956.66
2023-12-22T03:51:49.435Z,96966.53
2023-12-22T03:52:30.340Z,96948.78
2023-12-22T03:53:10.443Z,96949.78
2023-12-22T03:53:50.366Z,96953.44
2023-12-22T03:54:30.529Z,96951.13
2023-12-22T03:55:11.343Z,96976.91
2023-12-22T03:55:51.561Z,96943.44
2023-12-22T03:56:32.364Z,96945.66
2023-12-22T03:57:26.335Z,96955.53
2023-12-22T03:58:20.351Z,96975.41
2023-12-22T03:59:14.364Z,96941.91
2023-12-22T04:00:08.347Z,96932.47
2023-12-22T04:01:02.398Z,96964.19
2023-12-22T04:01:49.374Z,96980.28
2023-12-22T04:02:23.492Z,96974.44
2023-12-22T04:03:11.357Z,96942.69
2023-12-22T04:03:45.438Z,96965.53
2023-12-22T04:04:35.341Z,96960.69
2023-12-22T04:05:09.604Z,96954.25
2023-12-22T04:05:56.488Z,96963.75
2023-12-22T04:06:37.619Z,96981.78
2023-12-22T04:07:17.436Z,96982.94
2023-12-22T04:07:57.494Z,96966.91
2023-12-22T04:08:38.446Z,96967.22
2023-12-22T04:09:18.494Z,96941.53
2023-12-22T04:09:58.318Z,96979.25
2023-12-22T04:10:38.474Z,96975.91
2023-12-22T04:11:18.313Z,96973.25
2023-12-22T04:11:58.438Z,96982.59
2023-12-22T04:12:39.338Z,96967.06
2023-12-22T04:13:19.449Z,96960.06
2023-12-22T04:13:59.417Z,96982.94
2023-12-22T04:14:39.448Z,96966.91
2023-12-22T04:15:20.333Z,96977.59
2023-12-22T04:16:00.582Z,96962.53
2023-12-22T04:16:45.364Z,96964.25
2023-12-22T04:17:25.412Z,96960.25
2023-12-22T04:18:05.409Z,96982.97
2023-12-22T04:18:45.645Z,97003.00
2023-12-22T04:19:25.476Z,96993.28
2023-12-22T04:20:05.461Z,96942.19
2023-12-22T04:20:46.340Z,96966.91
2023-12-22T04:21:26.407Z,96953.88
2023-12-22T04:22:06.309Z,96943.38
2023-12-22T04:22:47.422Z,96956.19
2023-12-22T04:23:27.318Z,96988.81
2023-12-22T04:24:08.511Z,96958.22
2023-12-22T04:24:48.293Z,96957.88
2023-12-22T04:25:28.453Z,96970.41
2023-12-22T04:26:10.313Z,96967.59
2023-12-22T04:26:50.404Z,96967.13
2023-12-22T04:27:30.304Z,96982.78
2023-12-22T04:28:11.489Z,96950.59
2023-12-22T04:28:51.416Z,96945.38
2023-12-22T04:29:31.475Z,97003.19
2023-12-22T04:30:12.309Z,96967.31
2023-12-22T04:30:52.508Z,96988.31
2023-12-22T04:31:32.362Z,96965.75
2023-12-22T04:32:13.404Z,97003.50
2023-12-22T04:32:53.382Z,96937.41
2023-12-22T04:33:33.525Z,96984.31
2023-12-22T04:34:13.350Z,96960.44
2023-12-22T04:34:53.441Z,96960.31
2023-12-22T04:35:33.291Z,96959.94
2023-12-22T04:36:14.399Z,96963.66
2023-12-22T04:36:54.302Z,96974.31
2023-12-22T04:37:34.419Z,96962.28
2023-12-22T04:38:15.314Z,96977.81
2023-12-22T04:38:55.429Z,96950.31
2023-12-22T04:39:35.391Z,96959.94
2023-12-22T04:40:16.455Z,96948.78
2023-12-22T04:40:56.324Z,96967.31
2023-12-22T04:41:36.405Z,96944.97
2023-12-22T04:42:16.309Z,97013.59
2023-12-22T04:42:57.459Z,96963.13
2023-12-22T04:43:37.346Z,96994.34
2023-12-22T04:44:17.389Z,96990.38
2023-12-22T04:44:59.303Z,96963.47
2023-12-22T04:45:39.400Z,96968.72
2023-12-22T04:46:19.329Z,96969.84
2023-12-22T04:46:59.460Z,96954.31
2023-12-22T04:47:39.350Z,96989.00
2023-12-22T04:48:19.487Z,97007.09
2023-12-22T04:49:00.439Z,96986.69
2023-12-22T04:49:40.413Z,96972.97
2023-12-22T04:50:20.312Z,96969.38
2023-12-22T04:51:00.378Z,97016.06
2023-12-22T04:51:40.308Z,96989.53
2023-12-22T04:52:20.419Z,96981.22
2023-12-22T04:53:01.362Z,96982.41
2023-12-22T04:53:41.463Z,96971.53
2023-12-22T04:54:21.284Z,96979.69
2023-12-22T04:55:01.386Z,96990.72
2023-12-22T04:55:41.353Z,96972.69
2023-12-22T04:56:21.742Z,97006.75
2023-12-22T04:57:02.275Z,96971.03
2023-12-22T04:57:42.404Z,96989.53
2023-12-22T04:58:22.287Z,96991.56
2023-12-22T04:59:02.447Z,96990.06
2023-12-22T04:59:42.266Z,96998.91
2023-12-22T05:00:23.403Z,96998.91
2023-12-22T05:01:04.404Z,97007.91
2023-12-22T05:01:46.661Z,96970.72
2023-12-22T05:02:59.312Z,96962.53
2023-12-22T05:03:39.433Z,96974.38
2023-12-22T05:04:19.358Z,97001.25
2023-12-22T05:05:00.495Z,96985.41
2023-12-22T05:05:41.343Z,96998.41
2023-12-22T05:06:28.310Z,96980.09
2023-12-22T05:07:02.379Z,97009.63
2023-12-22T05:07:49.491Z,96963.56
2023-12-22T05:08:24.026Z,96984.44
2023-12-22T05:09:12.268Z,96999.09
2023-12-22T05:09:45.995Z,96991.59
2023-12-22T05:10:33.348Z,96994.75
2023-12-22T05:11:07.131Z,96987.09
2023-12-22T05:11:48.289Z,96994.75
2023-12-22T05:12:22.414Z,96986.41
2023-12-22T05:12:57.196Z,97005.78
2023-12-22T05:13:37.288Z,96986.78
2023-12-22T05:14:11.964Z,96975.41
2023-12-22T05:14:46.007Z,96972.41
2023-12-22T05:15:26.269Z,96983.72
2023-12-22T05:16:00.361Z,97007.94
2023-12-22T05:16:35.458Z,97024.13
2023-12-22T05:17:16.289Z,97007.75
2023-12-22T05:17:50.668Z,96993.75
2023-12-22T05:18:27.149Z,97029.81
2023-12-22T05:19:08.263Z,97029.31
2023-12-22T05:19:42.372Z,97020.97
2023-12-22T05:20:17.042Z,96997.44
2023-12-22T05:20:58.254Z,97045.81
2023-12-22T05:21:32.449Z,96999.44
2023-12-22T05:22:06.020Z,96986.75
2023-12-22T05:22:47.315Z,96993.94
2023-12-22T05:23:21.334Z,97003.75
2023-12-22T05:23:56.038Z,96986.44
2023-12-22T05:24:36.250Z,96996.78
2023-12-22T05:25:11.532Z,97029.13
2023-12-22T05:25:45.143Z,97011.63
2023-12-22T05:26:27.241Z,96999.44
2023-12-22T05:27:01.345Z,97051.50
2023-12-22T05:27:36.025Z,97010.78
2023-12-22T05:28:16.253Z,96986.75
2023-12-22T05:28:52.943Z,97004.94
2023-12-22T05:29:27.022Z,97016.78
2023-12-22T05:30:09.249Z,97018.78
2023-12-22T05:30:43.403Z,97031.00
2023-12-22T05:31:18.742Z,97045.50
2023-12-22T05:31:59.304Z,97011.09
2023-12-22T05:32:33.355Z,97010.13
2023-12-22T05:33:07.105Z,97000.75
2023-12-22T05:33:47.266Z,97000.25
2023-12-22T05:34:21.373Z,97069.84
2023-12-22T05:34:56.117Z,97029.47
2023-12-22T05:35:39.676Z,97009.44
2023-12-22T05:36:15.340Z,97019.09
2023-12-22T05:36:49.012Z,97000.75
2023-12-22T05:37:29.269Z,97002.41
2023-12-22T05:38:03.507Z,97029.81
2023-12-22T05:38:41.171Z,97050.84
2023-12-22T05:39:22.253Z,97040.97
2023-12-22T05:39:56.927Z,97006.78
2023-12-22T05:40:32.857Z,97018.78
2023-12-22T05:41:14.239Z,97039.81
2023-12-22T05:41:48.418Z,97012.44
2023-12-22T05:42:23.065Z,97016.13
2023-12-22T05:43:03.230Z,97007.25
2023-12-22T05:43:37.375Z,97049.00
2023-12-22T05:44:11.029Z,97041.16
2023-12-22T05:44:54.307Z,97036.50
2023-12-22T05:45:28.360Z,97026.47
2023-12-22T05:46:03.113Z,97011.44
2023-12-22T05:46:48.386Z,97068.50
2023-12-22T05:47:22.392Z,97023.13
2023-12-22T05:47:56.157Z,97073.84
2023-12-22T05:48:36.309Z,97017.78
2023-12-22T05:49:10.552Z,97020.47
2023-12-22T05:49:45.506Z,97064.34
2023-12-22T05:50:26.310Z,97039.63
2023-12-22T05:51:00.410Z,97018.13
2023-12-22T05:51:40.917Z,97020.13
2023-12-22T05:52:22.255Z,97024.47
2023-12-22T05:52:56.470Z,97041.97
2023-12-22T05:53:31.223Z,97052.81
2023-12-22T05:54:13.218Z,97036.00
2023-12-22T05:54:47.307Z,97027.81
2023-12-22T05:55:21.094Z,97062.50
2023-12-22T05:56:01.370Z,97022.13
2023-12-22T05:56:35.384Z,97086.53
2023-12-22T05:57:10.071Z,97069.88
2023-12-22T05:57:50.464Z,97054.81
2023-12-22T05:58:24.328Z,97044.50
2023-12-22T05:58:58.113Z,97069.19
2023-12-22T05:59:40.240Z,97035.16
2023-12-22T06:00:21.330Z,97052.66
2023-12-22T06:01:02.298Z,97035.31
2023-12-22T06:01:42.475Z,97039.81
2023-12-22T06:02:22.230Z,97051.84
2023-12-22T06:03:02.349Z,97080.53
2023-12-22T06:03:43.245Z,97046.50
2023-12-22T06:04:24.377Z,97063.84
2023-12-22T06:05:04.354Z,97102.22
2023-12-22T06:05:44.399Z,97046.50
2023-12-22T06:06:24.275Z,97045.16
2023-12-22T06:07:04.384Z,97044.47
2023-12-22T06:07:44.232Z,97056.50
2023-12-22T06:08:25.286Z,97081.69
2023-12-22T06:09:06.194Z,97055.50
2023-12-22T06:09:46.378Z,97053.16
2023-12-22T06:10:27.248Z,97035.13
2023-12-22T06:11:07.306Z,97042.16
2023-12-22T06:11:47.228Z,97026.09
2023-12-22T06:12:28.294Z,97041.16
2023-12-22T06:13:11.202Z,97067.50
2023-12-22T06:13:51.394Z,97057.81
2023-12-22T06:14:31.221Z,97044.81
2023-12-22T06:15:12.281Z,97074.19
2023-12-22T06:15:52.203Z,97072.84
2023-12-22T06:16:33.373Z,97049.16
2023-12-22T06:17:13.254Z,97045.81
2023-12-22T06:17:53.787Z,97050.13
2023-12-22T06:18:34.254Z,97071.84
2023-12-22T06:19:14.589Z,97054.16
2023-12-22T06:19:55.279Z,97113.91
2023-12-22T06:20:36.292Z,97093.38
2023-12-22T06:21:18.237Z,97067.03
2023-12-22T06:21:58.477Z,97058.84
2023-12-22T06:22:38.246Z,97051.16
2023-12-22T06:23:18.380Z,97052.97
2023-12-22T06:23:58.229Z,97086.53
2023-12-22T06:24:39.333Z,97076.69
2023-12-22T06:25:20.223Z,97052.00
2023-12-22T06:26:00.515Z,97079.22
2023-12-22T06:26:41.201Z,97046.66
2023-12-22T06:27:21.291Z,97079.53
2023-12-22T06:28:02.225Z,97041.47
2023-12-22T06:28:42.543Z,97058.84
2023-12-22T06:29:23.217Z,97041.00
2023-12-22T06:30:03.303Z,97056.84
2023-12-22T06:30:43.211Z,97062.16
2023-12-22T06:31:28.301Z,97046.16
2023-12-22T06:32:08.191Z,97049.69
2023-12-22T06:32:49.555Z,97058.19
2023-12-22T06:33:30.336Z,97057.84
2023-12-22T06:34:10.286Z,97059.19
2023-12-22T06:34:50.181Z,97066.19
2023-12-22T06:35:30.356Z,97037.16
2023-12-22T06:36:11.208Z,97041.97
2023-12-22T06:36:52.306Z,97017.13
2023-12-22T06:37:33.218Z,97051.84
2023-12-22T06:38:13.305Z,97044.31
2023-12-22T06:38:55.202Z,97052.34
2023-12-22T06:39:35.281Z,97027.78
2023-12-22T06:40:16.194Z,97031.63
2023-12-22T06:40:57.342Z,97033.81
2023-12-22T06:41:44.176Z,97043.47
2023-12-22T06:42:18.375Z,97041.50
2023-12-22T06:43:05.183Z,97032.28
2023-12-22T06:43:39.266Z,97024.97
2023-12-22T06:44:20.204Z,97041.16
2023-12-22T06:45:01.277Z,97021.31
2023-12-22T06:45:41.177Z,97037.16
2023-12-22T06:46:32.653Z,97073.19
2023-12-22T06:47:14.262Z,97041.47
2023-12-22T06:47:54.694Z,97066.19
2023-12-22T06:48:37.284Z,97041.16
2023-12-22T06:49:17.783Z,97023.47
2023-12-22T06:49:59.365Z,97046.81
2023-12-22T06:50:40.849Z,97058.16
2023-12-22T06:51:32.161Z,97045.50
2023-12-22T06:52:13.275Z,97016.13
2023-12-22T06:52:54.154Z,97046.34
2023-12-22T06:53:34.261Z,97056.00
2023-12-22T06:54:17.242Z,97017.47
2023-12-22T06:54:58.408Z,97033.47
2023-12-22T06:55:38.178Z,97048.50
2023-12-22T06:56:40.986Z,97073.53
2023-12-22T06:57:23.074Z,97037.63
2023-12-22T06:58:05.658Z,97021.47
2023-12-22T06:58:46.169Z,97022.63
2023-12-22T06:59:27.250Z,97002.78
2023-12-22T07:00:08.147Z,97007.09
2023-12-22T07:00:56.166Z,97012.78
2023-12-22T07:01:58.886Z,96998.59
2023-12-22T07:03:09.259Z,97012.28
2023-12-22T07:03:56.280Z,97014.47
2023-12-22T07:05:22.203Z,97035.31
2023-12-22T07:06:10.312Z,97020.97
2023-12-22T07:06:44.279Z,97032.66
2023-12-22T07:07:31.163Z,97046.34
2023-12-22T07:08:05.765Z,97044.84
2023-12-22T07:09:05.152Z,97008.63
2023-12-22T07:09:40.824Z,97040.31
2023-12-22T07:10:29.232Z,97049.81
2023-12-22T07:11:04.145Z,97053.31
2023-12-22T07:12:04.406Z,97039.13
2023-12-22T07:12:38.263Z,97070.84
2023-12-22T07:13:11.967Z,97096.22
2023-12-22T07:13:53.161Z,97040.81
2023-12-22T07:14:27.328Z,97073.53
2023-12-22T07:15:01.105Z,97039.81
2023-12-22T07:15:41.176Z,97028.47
2023-12-22T07:16:19.285Z,97034.47
2023-12-22T07:16:53.071Z,97017.81
2023-12-22T07:17:33.321Z,97037.16
2023-12-22T07:18:07.342Z,97084.53
2023-12-22T07:18:41.052Z,97041.47
2023-12-22T07:19:22.207Z,97062.84
2023-12-22T07:19:59.185Z,97080.88
2023-12-22T07:20:33.937Z,97052.97
2023-12-22T07:21:15.172Z,97057.84
2023-12-22T07:21:50.748Z,97042.50
2023-12-22T07:22:25.089Z,97029.66
2023-12-22T07:23:05.223Z,97040.31
2023-12-22T07:23:39.224Z,97067.84
2023-12-22T07:24:14.598Z,97046.81
2023-12-22T07:24:58.286Z,97047.84
2023-12-22T07:25:33.262Z,97046.97
2023-12-22T07:26:07.126Z,97076.88
2023-12-22T07:26:47.115Z,97078.88
2023-12-22T07:27:21.189Z,97038.81
2023-12-22T07:27:55.743Z,97018.81
2023-12-22T07:28:36.249Z,97021.13
2023-12-22T07:29:10.820Z,97052.31
2023-12-22T07:29:45.036Z,97041.16
2023-12-22T07:30:25.130Z,97046.13
2023-12-22T07:31:01.704Z,97032.81
2023-12-22T07:31:36.032Z,97073.53
2023-12-22T07:32:16.294Z,97026.97
2023-12-22T07:32:54.134Z,97027.47
2023-12-22T07:33:29.737Z,97032.28
2023-12-22T07:34:11.192Z,97048.66
2023-12-22T07:34:46.043Z,97045.50
2023-12-22T07:35:20.041Z,97053.50
2023-12-22T07:36:00.284Z,97055.66
2023-12-22T07:36:34.720Z,97031.28
2023-12-22T07:37:10.572Z,97047.63
2023-12-22T07:37:51.292Z,97045.81
2023-12-22T07:38:25.356Z,97038.28
2023-12-22T07:39:00.650Z,97038.44
2023-12-22T07:39:42.155Z,97052.47
2023-12-22T07:40:18.077Z,97034.09
2023-12-22T07:40:52.934Z,97043.63
2023-12-22T07:41:33.141Z,97046.63
2023-12-22T07:42:07.973Z,97051.31
2023-12-22T07:42:41.896Z,97042.44
2023-12-22T07:43:23.140Z,97045.63
2023-12-22T07:43:57.239Z,97021.94
2023-12-22T07:44:33.803Z,97062.84
2023-12-22T07:45:15.147Z,97049.97
2023-12-22T07:45:51.547Z,97056.50
2023-12-22T07:46:26.498Z,97091.72
2023-12-22T07:47:08.214Z,97035.13
2023-12-22T07:47:42.338Z,97052.63
2023-12-22T07:48:17.069Z,97069.84
2023-12-22T07:48:58.217Z,97044.50
2023-12-22T07:49:33.146Z,97056.81
2023-12-22T07:50:09.923Z,97050.00
2023-12-22T07:50:51.818Z,97038.81
2023-12-22T07:51:26.313Z,97035.59
2023-12-22T07:52:02.198Z,97029.63
2023-12-22T07:52:46.135Z,97062.84
2023-12-22T07:53:20.319Z,97031.63
2023-12-22T07:53:53.883Z,97029.28
2023-12-22T07:54:34.106Z,97039.13
2023-12-22T07:55:08.240Z,97019.94
2023-12-22T07:55:43.958Z,97046.16